Time;durP1;ratioP1;P1;durP2;ratioP2;P2;SDS_P1;SDS_P2;PMS_P1;PMS_P2;Temp;Humidity;BMP_temperature;BMP_pressure;BME280_temperature;BME280_humidity;BME280_pressure;Samples;Min_cycle;Max_cycle;Signal;HPM_P1;HPM_P2
2022/10/06 00:00:42;;;;;;;;;;;;;;;12.36;86.85;97312.34;4895255;29;20469;-75
2022/10/06 00:03:08;;;;;;;;;;;;;;;12.34;86.90;97319.66;4893302;29;20379;-75
2022/10/06 00:05:34;;;;;;;;;;;;;;;12.31;87.84;97319.28;4887316;29;19991;-75
2022/10/06 00:08:01;;;;;;;;;;;;;;;12.28;87.41;97319.66;4889794;29;19963;-75
2022/10/06 00:10:27;;;;;;;;;;;;;;;12.24;86.96;97315.84;4890400;29;19956;-75
2022/10/06 00:12:53;;;;;;;;;;;;;;;12.23;87.20;97327.38;4891170;29;19955;-75
2022/10/06 00:15:25;;;;;;;;;;;;;;;12.21;87.31;97329.41;4893127;29;19952;-75
2022/10/06 00:17:51;;;;;;;;;;;;;;;12.17;87.26;97327.19;4885659;29;20405;-76
2022/10/06 00:20:17;;;;;;;;;;;;;;;12.15;87.22;97336.28;4895274;29;19976;-76
2022/10/06 00:22:44;;;;;;;;;;;;;;;12.13;87.59;97333.84;4890042;29;20331;-76
2022/10/06 00:25:11;;;;;;;;;;;;;;;12.12;87.54;97342.78;4895239;29;19972;-75
2022/10/06 00:27:46;;;;;;;;;;;;;;;12.11;87.60;97333.25;4893337;29;19956;-76
2022/10/06 00:30:13;;;;;;;;;;;;;;;12.11;87.70;97335.09;4891193;29;19945;-76
2022/10/06 00:32:39;;;;;;;;;;;;;;;12.10;87.96;97329.03;4890695;29;19964;-76
2022/10/06 00:35:06;;;;;;;;;;;;;;;12.11;87.76;97333.25;4885828;29;19961;-75
2022/10/06 00:37:36;;;;;;;;;;;;;;;12.11;88.08;97333.25;4886345;29;19963;-75
2022/10/06 00:40:08;;;;;;;;;;;;;;;12.10;88.00;97338.75;4890719;29;19971;-75
2022/10/06 00:42:46;;;;;;;;;;;;;;;12.07;87.95;97341.75;4895253;29;19969;-75
2022/10/06 00:45:13;;;;;;;;;;;;;;;12.04;88.13;97350.88;4892025;29;19982;-75
2022/10/06 00:47:40;;;;;;;;;;;;;;;12.03;87.95;97346.63;4885581;29;19964;-75
2022/10/06 00:50:07;;;;;;;;;;;;;;;12.01;87.86;97356.56;4895595;29;20425;-75
2022/10/06 00:52:33;;;;;;;;;;;;;;;11.97;87.98;97348.25;4890007;29;19951;-75
2022/10/06 00:54:59;;;;;;;;;;;;;;;11.97;87.93;97352.72;4887842;29;19957;-76
2022/10/06 00:57:26;;;;;;;;;;;;;;;11.94;88.37;97350.47;4893015;29;19972;-75
2022/10/06 00:59:52;;;;;;;;;;;;;;;11.92;88.26;97355.94;4892788;29;19966;-75
2022/10/06 01:02:21;;;;;;;;;;;;;;;11.90;88.03;97350.06;4885556;29;20420;-75
2022/10/06 01:04:48;;;;;;;;;;;;;;;11.90;88.25;97357.97;4893674;29;19946;-75
2022/10/06 01:07:15;;;;;;;;;;;;;;;11.88;88.17;97361.78;4891699;29;20457;-75
2022/10/06 01:09:41;;;;;;;;;;;;;;;11.85;87.94;97357.75;4889551;29;20022;-75
2022/10/06 01:12:07;;;;;;;;;;;;;;;11.84;87.73;97360.56;4890174;29;19962;-75
2022/10/06 01:14:35;;;;;;;;;;;;;;;11.81;87.85;97361.00;4890144;29;19968;-75
2022/10/06 01:17:33;;;;;;;;;;;;;;;11.79;88.11;97353.28;4894201;29;19954;-75
2022/10/06 01:20:01;;;;;;;;;;;;;;;11.78;88.07;97354.31;4861924;29;19975;-75
2022/10/06 01:22:29;;;;;;;;;;;;;;;11.76;88.67;97367.66;4889891;29;19953;-76
2022/10/06 01:24:55;;;;;;;;;;;;;;;11.75;88.52;97367.84;4888590;29;20437;-76
2022/10/06 01:27:22;;;;;;;;;;;;;;;11.75;88.82;97365.22;4888675;29;19961;-76
2022/10/06 01:29:50;;;;;;;;;;;;;;;11.75;89.11;97359.97;4891467;29;19953;-75
2022/10/06 01:32:16;;;;;;;;;;;;;;;11.74;89.08;97366.25;4888336;29;19963;-75
2022/10/06 01:34:42;;;;;;;;;;;;;;;11.73;89.54;97364.63;4891096;29;20051;-75
2022/10/06 01:37:07;;;;;;;;;;;;;;;11.71;89.71;97374.53;4888782;29;20037;-75
2022/10/06 01:39:33;;;;;;;;;;;;;;;11.69;89.44;97372.09;4884031;29;20391;-75
2022/10/06 01:41:59;;;;;;;;;;;;;;;11.68;89.84;97373.13;4893049;29;19952;-75
2022/10/06 01:44:25;;;;;;;;;;;;;;;11.67;90.49;97381.19;4891132;29;19983;-75
2022/10/06 01:46:51;;;;;;;;;;;;;;;11.63;90.09;97366.84;4887455;29;19975;-75
2022/10/06 01:49:17;;;;;;;;;;;;;;;11.60;90.46;97370.69;4888086;29;20057;-75
2022/10/06 01:51:44;;;;;;;;;;;;;;;11.57;89.82;97371.91;4886537;29;19950;-75
2022/10/06 01:54:10;;;;;;;;;;;;;;;11.58;89.95;97381.38;4891639;29;20056;-75
2022/10/06 01:56:36;;;;;;;;;;;;;;;11.57;90.20;97384.22;4887724;29;19957;-74
2022/10/06 01:59:02;;;;;;;;;;;;;;;11.56;89.47;97383.41;4891736;29;20412;-75
2022/10/06 02:01:28;;;;;;;;;;;;;;;11.53;89.26;97381.19;4886080;29;19949;-74
2022/10/06 02:03:54;;;;;;;;;;;;;;;11.50;88.89;97389.44;4890302;29;20046;-74
2022/10/06 02:06:20;;;;;;;;;;;;;;;11.47;88.87;97375.94;4888494;29;19966;-75
2022/10/06 02:08:46;;;;;;;;;;;;;;;11.43;89.21;97380.78;4892558;29;19957;-75
2022/10/06 02:11:12;;;;;;;;;;;;;;;11.41;89.44;97385.41;4885842;29;20004;-74
2022/10/06 02:13:38;;;;;;;;;;;;;;;11.37;89.30;97381.56;4886260;29;19959;-75
2022/10/06 02:16:05;;;;;;;;;;;;;;;11.36;89.74;97396.53;4889493;29;19964;-75
2022/10/06 02:18:32;;;;;;;;;;;;;;;11.34;89.38;97397.75;4894715;29;19958;-75
2022/10/06 02:20:58;;;;;;;;;;;;;;;11.30;89.51;97399.13;4888613;29;20445;-75
2022/10/06 02:23:24;;;;;;;;;;;;;;;11.27;89.52;97402.16;4886423;29;19955;-74
2022/10/06 02:26:00;;;;;;;;;;;;;;;11.24;88.99;97405.19;4886715;29;19956;-74
2022/10/06 02:28:26;;;;;;;;;;;;;;;11.21;89.33;97414.25;4888171;29;20403;-74
2022/10/06 02:30:52;;;;;;;;;;;;;;;11.18;89.25;97412.03;4887786;29;20453;-75
2022/10/06 02:33:18;;;;;;;;;;;;;;;11.14;89.17;97414.22;4895411;29;19960;-74
2022/10/06 02:35:44;;;;;;;;;;;;;;;11.12;89.49;97424.13;4888739;29;20011;-75
2022/10/06 02:38:10;;;;;;;;;;;;;;;11.11;89.54;97419.09;4885653;29;20417;-74
2022/10/06 02:40:35;;;;;;;;;;;;;;;11.09;89.23;97421.91;4887629;29;20027;-74
2022/10/06 02:43:01;;;;;;;;;;;;;;;11.08;89.85;97424.72;4891255;29;19954;-75
2022/10/06 02:45:28;;;;;;;;;;;;;;;11.08;90.19;97437.84;4893337;29;20447;-74
2022/10/06 02:47:54;;;;;;;;;;;;;;;11.05;90.36;97433.78;4893129;29;19970;-74
2022/10/06 02:50:19;;;;;;;;;;;;;;;11.06;90.61;97437.22;4892982;29;19965;-75
2022/10/06 02:52:45;;;;;;;;;;;;;;;11.05;90.65;97448.75;4890305;29;20060;-74
2022/10/06 02:55:12;;;;;;;;;;;;;;;11.02;90.03;97451.75;4889679;29;19954;-74
2022/10/06 02:57:38;;;;;;;;;;;;;;;10.97;89.94;97452.34;4895895;29;19962;-74
2022/10/06 03:00:06;;;;;;;;;;;;;;;10.94;90.38;97463.19;4893407;29;19980;-74
2022/10/06 03:02:32;;;;;;;;;;;;;;;10.92;90.14;97454.75;4890109;29;19955;-74
2022/10/06 03:04:58;;;;;;;;;;;;;;;10.90;90.14;97462.00;4888658;29;19965;-74
2022/10/06 03:07:24;;;;;;;;;;;;;;;10.89;90.70;97455.13;4891724;29;19961;-74
2022/10/06 03:09:50;;;;;;;;;;;;;;;10.87;90.99;97465.81;4896326;29;20055;-74
2022/10/06 03:12:16;;;;;;;;;;;;;;;10.87;90.77;97457.94;4891017;29;20392;-75
2022/10/06 03:14:42;;;;;;;;;;;;;;;10.88;91.73;97464.00;4890213;29;19964;-74
2022/10/06 03:17:08;;;;;;;;;;;;;;;10.88;91.38;97477.94;4891068;29;19998;-74
2022/10/06 03:19:35;;;;;;;;;;;;;;;10.88;91.17;97480.56;4892611;29;19979;-74
2022/10/06 03:22:03;;;;;;;;;;;;;;;10.87;91.01;97483.38;4891073;29;19965;-74
2022/10/06 03:24:29;;;;;;;;;;;;;;;10.87;91.61;97488.63;4896192;29;19960;-75
2022/10/06 03:26:55;;;;;;;;;;;;;;;10.87;91.56;97488.63;4887822;29;20289;-75
2022/10/06 03:29:21;;;;;;;;;;;;;;;10.87;92.00;97494.66;4892077;29;20047;-75
2022/10/06 03:31:47;;;;;;;;;;;;;;;10.86;92.19;97493.06;4892233;29;20322;-75
2022/10/06 03:34:14;;;;;;;;;;;;;;;10.87;91.72;97496.50;4892558;29;20036;-75
2022/10/06 03:36:40;;;;;;;;;;;;;;;10.86;91.34;97495.69;4891580;29;19975;-75
2022/10/06 03:39:07;;;;;;;;;;;;;;;10.84;91.68;97510.00;4891453;29;19964;-75
2022/10/06 03:41:34;;;;;;;;;;;;;;;10.82;91.36;97512.03;4890731;29;19961;-75
2022/10/06 03:44:01;;;;;;;;;;;;;;;10.79;91.14;97505.31;4892438;29;19992;-75
2022/10/06 03:46:30;;;;;;;;;;;;;;;10.75;91.34;97512.78;4888594;29;20328;-75
2022/10/06 03:48:56;;;;;;;;;;;;;;;10.72;91.29;97507.09;4891542;29;19965;-75
2022/10/06 03:51:24;;;;;;;;;;;;;;;10.70;91.10;97520.41;4893764;29;20318;-75
2022/10/06 03:53:51;;;;;;;;;;;;;;;10.68;91.37;97524.22;4886476;29;19958;-75
2022/10/06 03:56:24;;;;;;;;;;;;;;;10.66;91.79;97527.03;4885968;29;20332;-75
2022/10/06 03:58:54;;;;;;;;;;;;;;;10.64;91.52;97523.00;4891941;29;19958;-75
2022/10/06 04:01:21;;;;;;;;;;;;;;;10.62;91.77;97525.78;4892271;29;19980;-75
2022/10/06 04:03:47;;;;;;;;;;;;;;;10.62;91.50;97530.25;4890711;29;19964;-75
2022/10/06 04:06:16;;;;;;;;;;;;;;;10.61;91.37;97534.69;4891002;29;20329;-75
2022/10/06 04:08:42;;;;;;;;;;;;;;;10.61;91.57;97547.00;4887592;29;19959;-75
2022/10/06 04:11:10;;;;;;;;;;;;;;;10.60;91.82;97548.78;4891843;29;19957;-75
2022/10/06 04:13:36;;;;;;;;;;;;;;;10.60;91.94;97545.34;4890202;29;20330;-75
2022/10/06 04:16:28;;;;;;;;;;;;;;;10.58;92.19;97550.78;4894523;29;19961;-75
2022/10/06 04:18:55;;;;;;;;;;;;;;;10.57;91.71;97557.06;4889024;29;19953;-75
2022/10/06 04:21:22;;;;;;;;;;;;;;;10.54;91.88;97549.53;4888787;29;20433;-75
2022/10/06 04:23:48;;;;;;;;;;;;;;;10.52;91.70;97547.13;4889835;29;19955;-75
2022/10/06 04:26:16;;;;;;;;;;;;;;;10.52;92.04;97557.63;4891259;29;19954;-74
2022/10/06 04:28:45;;;;;;;;;;;;;;;10.51;91.88;97556.00;4889350;29;20408;-74
2022/10/06 04:31:16;;;;;;;;;;;;;;;10.52;92.45;97562.88;4894953;29;19955;-74
2022/10/06 04:33:43;;;;;;;;;;;;;;;10.54;93.01;97573.16;4892134;29;19968;-74
2022/10/06 04:36:09;;;;;;;;;;;;;;;10.53;92.58;97571.53;4890345;29;19954;-74
2022/10/06 04:38:36;;;;;;;;;;;;;;;10.53;92.95;97574.97;4890743;29;20336;-74
2022/10/06 04:41:05;;;;;;;;;;;;;;;10.50;92.85;97577.19;4887858;29;19974;-74
2022/10/06 04:43:32;;;;;;;;;;;;;;;10.48;92.66;97569.50;4890922;29;20056;-74
2022/10/06 04:45:58;;;;;;;;;;;;;;;10.48;93.20;97568.69;4895019;29;20303;-74
2022/10/06 04:48:28;;;;;;;;;;;;;;;10.47;93.33;97569.69;4885328;29;19960;-74
2022/10/06 04:50:54;;;;;;;;;;;;;;;10.46;93.56;97570.69;4889760;29;20334;-74
2022/10/06 04:53:20;;;;;;;;;;;;;;;10.46;93.56;97581.19;4891132;29;19972;-74
2022/10/06 04:55:46;;;;;;;;;;;;;;;10.43;93.13;97577.09;4892185;29;19961;-74
2022/10/06 04:58:12;;;;;;;;;;;;;;;10.43;92.99;97592.84;4892534;29;19958;-74
2022/10/06 05:00:38;;;;;;;;;;;;;;;10.42;92.97;97587.81;4883975;29;19975;-74
2022/10/06 05:03:04;;;;;;;;;;;;;;;10.39;93.07;97594.22;4893877;29;20334;-74
2022/10/06 05:05:30;;;;;;;;;;;;;;;10.38;92.93;97589.97;4891872;29;19972;-74
2022/10/06 05:07:56;;;;;;;;;;;;;;;10.38;93.16;97597.03;4884736;29;19964;-74
2022/10/06 05:10:21;;;;;;;;;;;;;;;10.37;93.12;97601.44;4885491;29;20372;-74
2022/10/06 05:12:47;;;;;;;;;;;;;;;10.38;93.66;97599.66;4894659;29;19962;-74
2022/10/06 05:15:14;;;;;;;;;;;;;;;10.37;94.08;97604.06;4892017;29;19967;-75
2022/10/06 05:17:40;;;;;;;;;;;;;;;10.38;94.18;97604.91;4890308;29;19970;-74
2022/10/06 05:20:06;;;;;;;;;;;;;;;10.38;94.11;97616.19;4891245;29;19972;-74
2022/10/06 05:22:32;;;;;;;;;;;;;;;10.38;94.46;97610.97;4886222;29;19950;-74
2022/10/06 05:24:58;;;;;;;;;;;;;;;10.38;94.73;97612.78;4890074;29;19965;-74
2022/10/06 05:27:23;;;;;;;;;;;;;;;10.39;95.36;97617.81;4889148;29;20396;-75
2022/10/06 05:29:49;;;;;;;;;;;;;;;10.43;95.40;97618.25;4891933;29;20013;-75
2022/10/06 05:32:15;;;;;;;;;;;;;;;10.46;95.52;97615.28;4889250;29;19962;-75
2022/10/06 05:34:41;;;;;;;;;;;;;;;10.48;95.87;97619.31;4890767;29;20009;-75
2022/10/06 05:37:07;;;;;;;;;;;;;;;10.51;96.25;97626.81;4890382;29;20001;-75
2022/10/06 05:39:33;;;;;;;;;;;;;;;10.54;96.48;97628.22;4889182;29;20416;-75
2022/10/06 05:41:59;;;;;;;;;;;;;;;10.56;96.34;97628.84;4892286;29;20002;-75
2022/10/06 05:44:24;;;;;;;;;;;;;;;10.59;96.69;97635.56;4884278;29;19985;-75
2022/10/06 05:46:50;;;;;;;;;;;;;;;10.61;97.30;97644.88;4888162;29;19973;-75
2022/10/06 05:49:16;;;;;;;;;;;;;;;10.63;98.39;97653.34;4894634;29;20108;-75
2022/10/06 05:51:42;;;;;;;;;;;;;;;10.67;98.04;97649.34;4890131;29;19994;-75
2022/10/06 05:54:08;;;;;;;;;;;;;;;10.69;97.98;97652.59;4885268;29;20004;-75
2022/10/06 05:56:35;;;;;;;;;;;;;;;10.73;97.93;97651.22;4889686;29;20437;-75
2022/10/06 05:59:01;;;;;;;;;;;;;;;10.78;98.37;97666.41;4894088;29;19953;-75
2022/10/06 06:01:28;;;;;;;;;;;;;;;10.81;98.71;97665.22;4888257;29;20342;-75
2022/10/06 06:03:58;;;;;;;;;;;;;;;10.84;98.86;97668.28;4888664;29;19964;-75
2022/10/06 06:06:25;;;;;;;;;;;;;;;10.87;99.71;97665.25;4895594;29;19955;-75
2022/10/06 06:08:56;;;;;;;;;;;;;;;10.91;99.08;97670.94;4884648;29;19966;-75
2022/10/06 06:11:25;;;;;;;;;;;;;;;10.94;98.93;97675.81;4890293;29;19957;-75
2022/10/06 06:13:51;;;;;;;;;;;;;;;10.96;99.06;97671.19;4894683;29;19968;-75
2022/10/06 06:16:17;;;;;;;;;;;;;;;11.00;99.57;97680.28;4887979;29;19960;-75
2022/10/06 06:18:43;;;;;;;;;;;;;;;11.03;99.21;97687.81;4884638;29;19959;-75
2022/10/06 06:21:09;;;;;;;;;;;;;;;11.05;99.81;97693.69;4890706;29;19970;-75
2022/10/06 06:23:36;;;;;;;;;;;;;;;11.08;100.00;97698.53;4893289;29;19961;-75
2022/10/06 06:26:04;;;;;;;;;;;;;;;11.12;100.00;97704.22;4888752;29;19957;-75
2022/10/06 06:28:30;;;;;;;;;;;;;;;11.15;100.00;97712.53;4885079;29;19955;-76
2022/10/06 06:31:03;;;;;;;;;;;;;;;11.18;100.00;97692.97;4885892;29;20069;-75
2022/10/06 06:33:30;;;;;;;;;;;;;;;11.22;99.92;97706.53;4879593;29;19954;-75
2022/10/06 06:35:56;;;;;;;;;;;;;;;11.26;99.53;97707.78;4884287;29;19957;-75
2022/10/06 06:38:22;;;;;;;;;;;;;;;11.32;98.93;97713.06;4893107;29;19957;-75
2022/10/06 06:40:49;;;;;;;;;;;;;;;11.32;98.87;97725.41;4891792;29;20437;-75
2022/10/06 06:43:15;;;;;;;;;;;;;;;11.34;97.99;97718.16;4882565;29;19985;-75
2022/10/06 06:45:41;;;;;;;;;;;;;;;11.39;98.30;97723.63;4887444;29;19964;-75
2022/10/06 06:48:12;;;;;;;;;;;;;;;11.47;97.80;97723.47;4890656;29;19951;-75
2022/10/06 06:50:38;;;;;;;;;;;;;;;11.59;97.31;97726.41;4891070;29;19960;-75
2022/10/06 06:53:04;;;;;;;;;;;;;;;11.70;97.96;97731.09;4889853;29;19986;-74
2022/10/06 06:55:29;;;;;;;;;;;;;;;11.77;97.66;97733.78;4888108;29;20051;-74
2022/10/06 06:57:55;;;;;;;;;;;;;;;11.81;97.69;97734.19;4884959;29;19958;-75
2022/10/06 07:00:22;;;;;;;;;;;;;;;11.86;96.90;97737.84;4891356;29;20486;-75
2022/10/06 07:02:54;;;;;;;;;;;;;;;11.89;97.10;97736.72;4894122;29;19952;-75
2022/10/06 07:05:21;;;;;;;;;;;;;;;11.92;96.48;97738.94;4886004;29;19965;-75
2022/10/06 07:07:47;;;;;;;;;;;;;;;11.96;97.05;97742.81;4888900;29;19964;-75
2022/10/06 07:10:13;;;;;;;;;;;;;;;12.01;96.89;97737.78;4893434;29;19963;-75
2022/10/06 07:12:38;;;;;;;;;;;;;;;12.06;97.41;97752.97;4884699;29;19956;-75
2022/10/06 07:26:10;;;;;;;;;;;;;;;12.55;97.86;97768.53;4883576;29;20335;-74
2022/10/06 07:28:36;;;;;;;;;;;;;;;12.67;96.75;97771.41;4889284;29;20024;-74
2022/10/06 07:31:02;;;;;;;;;;;;;;;12.76;96.48;97775.47;4889796;29;20413;-74
2022/10/06 07:33:31;;;;;;;;;;;;;;;12.84;94.26;97771.06;4893124;29;19974;-75
2022/10/06 07:35:57;;;;;;;;;;;;;;;12.89;92.63;97771.25;4890872;29;19952;-74
2022/10/06 07:38:26;;;;;;;;;;;;;;;12.93;92.37;97769.84;4889724;29;19998;-74
2022/10/06 07:40:53;;;;;;;;;;;;;;;12.94;92.02;97782.81;4891119;29;19982;-74
2022/10/06 07:43:18;;;;;;;;;;;;;;;12.98;92.58;97785.88;4889371;29;19958;-74
2022/10/06 07:45:45;;;;;;;;;;;;;;;13.02;93.60;97788.91;4894896;29;20458;-74
2022/10/06 07:48:19;;;;;;;;;;;;;;;13.09;96.41;97795.00;4893425;29;19960;-74
2022/10/06 07:50:46;;;;;;;;;;;;;;;13.17;94.83;97789.53;4875731;29;19948;-74
2022/10/06 07:53:12;;;;;;;;;;;;;;;13.27;93.17;97786.50;4892012;29;19950;-74
2022/10/06 07:55:39;;;;;;;;;;;;;;;13.35;92.38;97794.22;4886673;29;19994;-74
2022/10/06 07:58:09;;;;;;;;;;;;;;;13.47;92.39;97791.81;4897738;29;19969;-74
2022/10/06 08:00:35;;;;;;;;;;;;;;;13.59;91.66;97793.63;4889922;29;19964;-74
2022/10/06 08:03:01;;;;;;;;;;;;;;;13.66;91.18;97798.09;4888958;29;19967;-74
2022/10/06 08:05:27;;;;;;;;;;;;;;;13.66;90.62;97790.97;4890615;29;19992;-74
2022/10/06 08:07:53;;;;;;;;;;;;;;;13.69;91.32;97798.50;4895915;29;20690;-74
2022/10/06 08:10:20;;;;;;;;;;;;;;;13.73;92.96;97799.72;4893712;29;19954;-74
2022/10/06 08:12:45;;;;;;;;;;;;;;;13.79;93.43;97806.78;4886557;29;19960;-74
2022/10/06 08:15:13;;;;;;;;;;;;;;;13.91;93.26;97800.91;4889529;29;20049;-74
2022/10/06 08:17:39;;;;;;;;;;;;;;;14.02;91.04;97793.16;4894436;29;19966;-74
2022/10/06 08:20:06;;;;;;;;;;;;;;;14.11;90.66;97800.84;4894123;29;19963;-74
2022/10/06 08:22:32;;;;;;;;;;;;;;;14.17;90.73;97798.22;4889694;29;19961;-74
2022/10/06 08:24:58;;;;;;;;;;;;;;;14.23;90.86;97801.03;4888806;29;19971;-74
2022/10/06 08:27:26;;;;;;;;;;;;;;;14.27;92.12;97805.69;4894556;29;20325;-74
2022/10/06 08:29:53;;;;;;;;;;;;;;;14.21;90.34;97806.50;4890344;29;19956;-74
2022/10/06 08:32:22;;;;;;;;;;;;;;;14.17;90.05;97811.41;4891233;29;19959;-74
2022/10/06 08:34:49;;;;;;;;;;;;;;;14.18;90.42;97818.28;4889574;29;19961;-74
2022/10/06 08:37:15;;;;;;;;;;;;;;;14.20;91.57;97824.16;4888071;29;19971;-74
2022/10/06 08:39:41;;;;;;;;;;;;;;;14.25;91.55;97825.38;4890239;29;19965;-74
2022/10/06 08:42:17;;;;;;;;;;;;;;;14.29;91.15;97822.13;4890261;29;19978;-74
2022/10/06 08:44:46;;;;;;;;;;;;;;;14.34;90.00;97822.31;4893897;29;19986;-74
2022/10/06 08:47:16;;;;;;;;;;;;;;;14.40;90.40;97812.75;4886887;29;19963;-74
2022/10/06 08:49:44;;;;;;;;;;;;;;;14.46;90.08;97821.66;4889944;29;19956;-74
2022/10/06 08:52:29;;;;;;;;;;;;;;;14.50;90.34;97823.66;4889597;29;20334;-74
2022/10/06 08:55:04;;;;;;;;;;;;;;;14.58;89.69;97826.09;4881768;29;19952;-74
2022/10/06 08:57:40;;;;;;;;;;;;;;;14.65;89.59;97828.72;4881476;29;19957;-74
2022/10/06 09:00:13;;;;;;;;;;;;;;;14.72;88.65;97833.97;4884193;29;19963;-74
2022/10/06 09:02:44;;;;;;;;;;;;;;;14.76;87.26;97825.44;4887481;29;20351;-74
2022/10/06 09:05:11;;;;;;;;;;;;;;;14.83;87.63;97830.69;4893192;29;19976;-74
2022/10/06 09:07:53;;;;;;;;;;;;;;;14.89;87.29;97831.66;4888541;29;19962;-74
2022/10/06 09:10:18;;;;;;;;;;;;;;;14.93;85.89;97823.13;4884673;29;19967;-74
2022/10/06 09:12:48;;;;;;;;;;;;;;;14.97;83.71;97812.91;4888581;29;19996;-74
2022/10/06 09:15:13;;;;;;;;;;;;;;;14.98;82.71;97810.06;4893650;29;19955;-74
2022/10/06 09:17:43;;;;;;;;;;;;;;;15.03;83.12;97812.06;4891956;29;19996;-74
2022/10/06 09:20:14;;;;;;;;;;;;;;;15.11;84.19;97826.88;4887804;29;19955;-74
2022/10/06 09:22:40;;;;;;;;;;;;;;;15.13;79.74;97799.19;4889623;29;19959;-74
2022/10/06 09:25:32;;;;;;;;;;;;;;;15.15;79.78;97805.09;4894000;29;19968;-74
2022/10/06 09:28:00;;;;;;;;;;;;;;;15.22;81.74;97820.88;4878543;29;19985;-74
2022/10/06 09:30:26;;;;;;;;;;;;;;;15.26;80.09;97810.72;4888577;29;19961;-74
2022/10/06 09:32:58;;;;;;;;;;;;;;;15.26;79.74;97814.16;4888196;29;20415;-74
2022/10/06 09:35:24;;;;;;;;;;;;;;;15.29;80.07;97819.03;4895243;29;20334;-74
2022/10/06 09:38:02;;;;;;;;;;;;;;;15.31;80.03;97819.63;4887548;29;19963;-74
2022/10/06 09:40:35;;;;;;;;;;;;;;;15.36;81.34;97824.25;4890554;29;20066;-74
2022/10/06 09:43:02;;;;;;;;;;;;;;;15.39;81.83;97829.09;4886062;29;19960;-74
2022/10/06 09:45:28;;;;;;;;;;;;;;;15.42;80.39;97824.22;4888548;29;19986;-74
2022/10/06 09:47:54;;;;;;;;;;;;;;;15.47;81.08;97825.41;4889892;29;19971;-74
2022/10/06 09:50:20;;;;;;;;;;;;;;;15.50;81.03;97831.06;4890716;29;19966;-74
2022/10/06 09:53:06;;;;;;;;;;;;;;;15.50;80.46;97827.63;4888092;29;19956;-74
2022/10/06 09:55:35;;;;;;;;;;;;;;;15.45;80.33;97822.97;4882173;29;19958;-74
2022/10/06 09:58:01;;;;;;;;;;;;;;;15.36;79.44;97819.78;4885510;29;20326;-74
2022/10/06 10:00:28;;;;;;;;;;;;;;;15.37;78.87;97825.88;4890036;29;19971;-74
2022/10/06 10:03:08;;;;;;;;;;;;;;;15.41;76.86;97811.19;4892942;29;20331;-74
2022/10/06 10:05:36;;;;;;;;;;;;;;;15.49;79.78;97836.56;4888164;29;19962;-74
2022/10/06 10:08:17;;;;;;;;;;;;;;;15.57;79.22;97837.09;4884101;29;19966;-74
2022/10/06 10:10:42;;;;;;;;;;;;;;;15.69;76.65;97808.13;4883712;29;20435;-74
2022/10/06 10:13:19;;;;;;;;;;;;;;;15.83;78.01;97817.63;4889621;29;20002;-74
2022/10/06 10:15:52;;;;;;;;;;;;;;;16.01;76.70;97805.44;4888358;29;19969;-74
2022/10/06 10:18:25;;;;;;;;;;;;;;;16.17;76.89;97806.69;4891004;29;19957;-74
2022/10/06 10:20:51;;;;;;;;;;;;;;;16.32;75.48;97791.25;4888832;29;19981;-74
2022/10/06 10:23:31;;;;;;;;;;;;;;;16.54;75.61;97790.78;4884243;29;19970;-75
2022/10/06 10:26:12;;;;;;;;;;;;;;;16.75;74.10;97778.91;4881784;29;19959;-75
2022/10/06 10:29:07;;;;;;;;;;;;;;;16.81;71.93;97762.13;4889662;29;19958;-76
2022/10/06 10:31:42;;;;;;;;;;;;;;;16.82;70.43;97753.16;4832413;29;19960;-75
2022/10/06 10:34:33;;;;;;;;;;;;;;;16.84;73.15;97781.06;4888811;29;19954;-74
2022/10/06 10:37:03;;;;;;;;;;;;;;;16.88;72.34;97775.28;4888355;29;20331;-74
2022/10/06 10:39:38;;;;;;;;;;;;;;;16.90;74.86;97800.53;4890076;29;19959;-74
2022/10/06 10:42:10;;;;;;;;;;;;;;;16.91;72.62;97782.81;4874009;29;20337;-75
2022/10/06 10:44:40;;;;;;;;;;;;;;;16.91;72.65;97785.44;4888603;29;19978;-75
2022/10/06 10:47:30;;;;;;;;;;;;;;;16.87;73.87;97789.59;4893228;29;20021;-74
2022/10/06 10:50:03;;;;;;;;;;;;;;;16.80;74.52;97801.09;4889278;29;19963;-75
2022/10/06 10:52:34;;;;;;;;;;;;;;;16.75;74.03;97792.16;4891528;29;20301;-74
2022/10/06 10:55:13;;;;;;;;;;;;;;;16.70;72.45;97768.97;4880004;29;19984;-75
2022/10/06 10:57:40;;;;;;;;;;;;;;;16.74;73.52;97780.75;4890688;29;20364;-75
2022/10/06 11:00:07;;;;;;;;;;;;;;;16.84;75.19;97799.59;4883417;29;19954;-73
2022/10/06 11:02:34;;;;;;;;;;;;;;;16.93;74.39;97788.69;4888473;29;19990;-73
2022/10/06 11:05:02;;;;;;;;;;;;;;;16.88;73.82;97786.69;4891112;29;19973;-73
2022/10/06 11:07:37;;;;;;;;;;;;;;;16.77;74.00;97796.19;4892552;29;19963;-73
2022/10/06 11:10:12;;;;;;;;;;;;;;;16.67;73.92;97795.09;4891426;29;20434;-73
2022/10/06 11:12:56;;;;;;;;;;;;;;;16.58;74.32;97797.25;4892973;29;19969;-73
2022/10/06 11:15:31;;;;;;;;;;;;;;;16.54;73.85;97790.78;4891824;29;19963;-73
2022/10/06 11:18:03;;;;;;;;;;;;;;;16.55;73.51;97793.22;4882632;29;19955;-74
2022/10/06 11:20:36;;;;;;;;;;;;;;;16.58;73.13;97792.75;4887908;29;20441;-73
2022/10/06 11:23:21;;;;;;;;;;;;;;;16.73;73.42;97780.97;4888538;29;20412;-73
2022/10/06 11:25:50;;;;;;;;;;;;;;;16.79;73.65;97780.06;4892110;29;20423;-73
2022/10/06 11:28:36;;;;;;;;;;;;;;;16.91;73.30;97780.16;4896576;29;19959;-73
2022/10/06 11:31:16;;;;;;;;;;;;;;;17.19;72.99;97774.22;4853672;29;20340;-73
2022/10/06 11:33:56;;;;;;;;;;;;;;;17.42;71.21;97752.25;4886748;29;19958;-73
2022/10/06 11:36:40;;;;;;;;;;;;;;;17.79;71.92;97767.94;4887237;29;20366;-74
2022/10/06 11:39:06;;;;;;;;;;;;;;;18.07;68.80;97726.63;4893913;29;19958;-73
2022/10/06 11:41:42;;;;;;;;;;;;;;;18.04;70.29;97744.63;4895460;29;20034;-74
2022/10/06 11:44:18;;;;;;;;;;;;;;;17.99;71.44;97752.47;4875537;29;19982;-73
2022/10/06 11:46:44;;;;;;;;;;;;;;;17.81;69.91;97740.13;4891762;29;19960;-73
2022/10/06 11:49:28;;;;;;;;;;;;;;;17.68;69.82;97743.03;4892795;29;19986;-74
2022/10/06 11:51:55;;;;;;;;;;;;;;;17.50;68.93;97733.34;4895394;29;19974;-73
2022/10/06 11:54:47;;;;;;;;;;;;;;;17.42;70.93;97757.53;4892180;29;19958;-74
2022/10/06 11:57:22;;;;;;;;;;;;;;;17.36;71.17;97750.50;4876868;29;19958;-73
2022/10/06 11:59:50;;;;;;;;;;;;;;;17.42;71.95;97752.25;4888188;29;20315;-73
2022/10/06 12:02:31;;;;;;;;;;;;;;;17.49;71.56;97746.81;4890042;29;19971;-73
2022/10/06 12:05:09;;;;;;;;;;;;;;;17.50;69.66;97741.28;4888297;29;20344;-73
2022/10/06 12:07:53;;;;;;;;;;;;;;;17.48;70.59;97735.41;4896084;29;20327;-73
2022/10/06 12:10:28;;;;;;;;;;;;;;;17.46;70.99;97740.13;4896675;29;19951;-73
2022/10/06 12:13:06;;;;;;;;;;;;;;;17.43;69.97;97730.81;4892662;29;19959;-74
2022/10/06 12:15:38;;;;;;;;;;;;;;;17.46;72.54;97753.41;4893024;29;20440;-73
2022/10/06 12:18:12;;;;;;;;;;;;;;;17.56;71.80;97750.19;4884736;29;19953;-74
2022/10/06 12:20:50;;;;;;;;;;;;;;;17.67;71.53;97737.94;4895077;29;19960;-73
2022/10/06 12:23:33;;;;;;;;;;;;;;;17.71;70.73;97736.44;4892933;29;20320;-73
2022/10/06 12:26:03;;;;;;;;;;;;;;;17.56;67.75;97707.75;4888624;29;19966;-73
2022/10/06 12:28:34;;;;;;;;;;;;;;;17.45;70.77;97736.69;4889394;29;20431;-73
2022/10/06 12:31:01;;;;;;;;;;;;;;;17.40;70.13;97736.53;4882197;29;20027;-73
2022/10/06 12:33:34;;;;;;;;;;;;;;;17.38;71.42;97751.88;4885829;29;19968;-73
2022/10/06 12:36:01;;;;;;;;;;;;;;;17.34;71.77;97747.28;4882482;29;19957;-73
2022/10/06 12:38:30;;;;;;;;;;;;;;;17.30;71.29;97740.81;4889044;29;19953;-73
2022/10/06 12:40:56;;;;;;;;;;;;;;;17.32;71.39;97739.53;4890530;29;19968;-73
2022/10/06 12:43:22;;;;;;;;;;;;;;;17.36;71.31;97738.03;4888478;29;20327;-74
2022/10/06 12:45:54;;;;;;;;;;;;;;;17.43;72.09;97741.41;4893558;29;19959;-74
2022/10/06 12:48:23;;;;;;;;;;;;;;;17.47;71.46;97739.13;4893170;29;19954;-73
2022/10/06 12:50:53;;;;;;;;;;;;;;;17.48;71.49;97732.75;4890952;29;19970;-73
2022/10/06 12:53:24;;;;;;;;;;;;;;;17.47;70.81;97725.84;4887179;29;19962;-73
2022/10/06 12:55:52;;;;;;;;;;;;;;;17.44;70.66;97719.13;4894764;29;20331;-74
2022/10/06 12:58:28;;;;;;;;;;;;;;;17.44;70.97;97724.44;4888344;29;20410;-74
2022/10/06 13:01:05;;;;;;;;;;;;;;;17.39;71.01;97731.50;4891072;29;19965;-74
2022/10/06 13:03:31;;;;;;;;;;;;;;;17.33;71.65;97738.50;4892569;29;19968;-74
2022/10/06 13:06:02;;;;;;;;;;;;;;;17.28;71.33;97732.28;4896838;29;20395;-73